Portada
METAR-TAF:

METAR-TAF

Aeropuertos :

Aeropuerto Internacional Amata Kabua

Majuro, Islas Marshall

latitud: 07-04N, longitud: 171-17E, altitud: 2 m

METAR: falta

Hora: 23:13 (11:13 UTC)

Pronóstico

El informe se hizo hace 5 horas y 53 minutos, a las 05:20 UTC
Pronóstico válido del 05 a las 06 UTC al 06 a las 06 UTC
Viento 10 kt del noreste
Visibilidad: 10 km
Escasas nubes a una altura de 2000 ft
Nubes dispersas a una altura de 5000 ft
A partir de las 05 a las 0900 UTC
Viento 10 kt del noreste
Visibilidad: 10 km
Nubes dispersas a una altura de 2000 ft
Nubes dispersas a una altura de 5000 ft
chaparrones en las proximidades

TAF: PKMJ 050520Z 0506/0606 05010KT P6SM FEW020 SCT050 FM050900 05010KT P6SM VCSH SCT020 SCT050

Observaciones y pronósticos meteorológicos de más de 4000 aeropuertos (mensajes METAR y TAF).

Los puntos amarillos y rojos representan las estaciones disponibles.

Ponga el ratón en el punto deseado para ver el nombre de la estación.

Haga clic para ver las observaciones y los pronósticos meteorológicos.

Para cambiar el mapa : haga clic en los botones verdes con una cruz de color negro para hacer un zoom, en el botón verde con un guión para alejar o en las flechas verdes para mapas adyacentes.


METAR-TAF: